Time;durP1;ratioP1;P1;durP2;ratioP2;P2;SDS_P1;SDS_P2;PMS_P1;PMS_P2;Temp;Humidity;BMP_temperature;BMP_pressure;BME280_temperature;BME280_humidity;BME280_pressure;Samples;Min_cycle;Max_cycle;Signal;HPM_P1;HPM_P2
2021/05/30 00:02:15;;;;;;;6.65;5.10;;;;;;;9.00;75.47;99913.57;514886;1098;116719;-59
2021/05/30 00:12:21;;;;;;;5.73;5.30;;;;;;;8.92;75.58;99906.13;513714;1098;115796;-59
2021/05/30 00:22:26;;;;;;;5.27;4.47;;;;;;;8.87;76.07;99917.76;515039;1098;116999;-60
2021/05/30 00:32:31;;;;;;;5.90;4.60;;;;;;;8.83;76.04;99917.92;515508;1098;117113;-57
2021/05/30 00:42:36;;;;;;;5.07;4.57;;;;;;;8.82;76.16;99912.76;516074;1098;115911;-59
2021/05/30 00:52:44;;;;;;;4.60;4.20;;;;;;;8.77;76.11;99909.55;515239;1098;115771;-60
2021/05/30 01:02:49;;;;;;;6.30;5.05;;;;;;;8.69;76.69;99905.53;516327;1093;116431;-59
2021/05/30 01:12:55;;;;;;;5.93;5.30;;;;;;;8.65;76.83;99919.72;515543;1098;116467;-59
2021/05/30 01:23:05;;;;;;;5.53;4.97;;;;;;;8.59;77.17;99901.69;515612;1093;115475;-58
2021/05/30 01:33:10;;;;;;;5.90;4.23;;;;;;;8.53;77.00;99928.19;514868;1097;116691;-59
2021/05/30 01:43:15;;;;;;;5.93;4.67;;;;;;;8.52;77.07;99926.50;515012;1098;116432;-60
2021/05/30 01:53:26;;;;;;;4.83;4.43;;;;;;;8.47;77.11;99934.55;515174;1098;116266;-58
2021/05/30 02:03:32;;;;;;;6.07;5.17;;;;;;;8.46;77.16;99950.31;514828;1093;116252;-59
2021/05/30 02:13:37;;;;;;;5.23;4.73;;;;;;;8.38;77.23;99948.95;515362;1092;116648;-60
2021/05/30 02:23:42;;;;;;;5.37;4.87;;;;;;;8.31;77.31;99950.16;514580;1092;116647;-58
2021/05/30 02:33:47;;;;;;;5.27;4.70;;;;;;;8.23;77.22;99957.52;515271;1098;116258;-59
2021/05/30 02:43:52;;;;;;;5.30;4.80;;;;;;;8.17;77.18;99952.61;515444;1098;116224;-59
2021/05/30 02:53:56;;;;;;;5.33;4.70;;;;;;;8.13;77.02;99965.81;514515;1098;116381;-61
2021/05/30 03:04:02;;;;;;;5.10;4.70;;;;;;;8.20;77.70;99961.16;516115;1098;116358;-59
2021/05/30 03:14:06;;;;;;;7.40;6.47;;;;;;;8.56;76.66;99959.44;515633;1098;116221;-59
2021/05/30 03:24:12;;;;;;;7.13;6.53;;;;;;;8.41;77.16;99963.63;514526;1093;116287;-61
2021/05/30 03:34:17;;;;;;;8.47;7.67;;;;;;;8.60;76.93;99967.99;515517;1098;116100;-60
2021/05/30 03:44:21;;;;;;;8.23;7.53;;;;;;;8.79;76.40;99975.77;515378;1097;116023;-61
2021/05/30 03:54:26;;;;;;;7.77;6.87;;;;;;;9.04;75.77;99980.61;514678;1093;116606;-58
2021/05/30 04:04:31;;;;;;;7.23;6.60;;;;;;;9.23;75.51;99997.98;515997;1098;117316;-60
2021/05/30 04:14:36;;;;;;;6.70;6.10;;;;;;;10.03;75.06;100003.36;515115;1098;117185;-59
2021/05/30 04:24:41;;;;;;;5.60;5.10;;;;;;;11.49;72.28;100002.88;515498;1098;116527;-61
2021/05/30 04:34:46;;;;;;;4.40;4.00;;;;;;;12.36;69.50;100008.94;515282;1098;117150;-60
2021/05/30 04:44:51;;;;;;;4.30;3.90;;;;;;;12.83;68.49;100017.30;514915;1098;117397;-61
2021/05/30 04:54:56;;;;;;;4.40;4.07;;;;;;;15.21;64.97;100009.23;515510;1098;117167;-60
2021/05/30 05:05:01;;;;;;;3.70;3.40;;;;;;;19.29;61.92;100009.42;515511;1098;116825;-61
2021/05/30 05:15:09;;;;;;;3.03;2.73;;;;;;;18.90;53.07;100013.80;515946;1098;166007;-60
2021/05/30 05:25:15;;;;;;;2.25;2.15;;;;;;;20.62;55.55;100014.44;515615;1098;117235;-60
2021/05/30 05:35:20;;;;;;;2.10;1.90;;;;;;;22.73;48.84;100009.70;515681;1094;116371;-60
2021/05/30 05:45:26;;;;;;;1.70;1.60;;;;;;;19.45;48.31;100019.47;515669;1098;117181;-59
2021/05/30 05:55:32;;;;;;;2.77;2.07;;;;;;;17.95;50.05;100025.88;514953;1093;116467;-60
2021/05/30 06:05:37;;;;;;;2.57;1.63;;;;;;;17.77;50.55;100034.50;515094;1093;117319;-59
2021/05/30 06:15:43;;;;;;;1.90;1.80;;;;;;;16.80;50.69;100050.56;515500;1098;117146;-59
2021/05/30 06:25:49;;;;;;;13.80;2.10;;;;;;;16.03;52.05;100060.28;515810;1098;117051;-59
2021/05/30 06:35:56;;;;;;;2.23;2.05;;;;;;;17.33;51.73;100055.97;514825;1094;117371;-60
2021/05/30 06:46:01;;;;;;;3.23;1.90;;;;;;;21.27;47.98;100063.16;514767;1098;116386;-59
2021/05/30 06:56:07;;;;;;;4.83;1.83;;;;;;;24.79;43.00;100049.28;515310;1098;116410;-61
2021/05/30 07:06:12;;;;;;;3.67;1.80;;;;;;;25.33;39.36;100045.57;514521;1098;115873;-61
2021/05/30 07:16:17;;;;;;;2.30;1.80;;;;;;;27.83;37.38;100051.55;515322;1093;117175;-61
2021/05/30 07:26:22;;;;;;;1.17;1.07;;;;;;;27.86;36.50;100066.50;515558;1098;116211;-61
2021/05/30 07:36:28;;;;;;;1.13;1.08;;;;;;;35.70;30.93;100049.80;516345;1098;116764;-61
2021/05/30 07:46:34;;;;;;;0.98;0.95;;;;;;;37.96;25.50;100048.15;515843;1093;116853;-61
2021/05/30 07:56:41;;;;;;;1.88;1.23;;;;;;;27.52;27.86;100075.23;515767;1098;116855;-61
2021/05/30 08:06:46;;;;;;;3.90;2.10;;;;;;;21.87;34.27;100068.66;515867;1098;116186;-61
2021/05/30 08:16:51;;;;;;;1.53;1.47;;;;;;;18.93;39.23;100079.20;516424;1098;117618;-53
2021/05/30 08:26:57;;;;;;;2.55;1.60;;;;;;;17.85;41.28;100085.15;515120;1098;118355;-58
2021/05/30 08:37:02;;;;;;;1.87;1.77;;;;;;;17.51;43.24;100086.23;515288;1093;116231;-60
2021/05/30 08:47:07;;;;;;;2.75;1.85;;;;;;;18.62;42.47;100071.34;515107;1093;116637;-61
2021/05/30 08:57:12;;;;;;;2.53;2.13;;;;;;;19.57;41.87;100076.03;514745;1098;116315;-61
2021/05/30 09:07:17;;;;;;;2.83;1.60;;;;;;;20.11;39.81;100083.41;516456;1098;116196;-65
2021/05/30 09:17:25;;;;;;;2.27;1.70;;;;;;;19.97;39.89;100080.27;515487;1098;116461;-67
2021/05/30 09:27:30;;;;;;;2.23;1.60;;;;;;;19.85;39.74;100074.23;514937;1098;116094;-72
2021/05/30 09:37:37;;;;;;;2.07;1.50;;;;;;;18.95;40.46;100081.73;515507;1092;117278;-62
2021/05/30 09:47:44;;;;;;;1.43;1.33;;;;;;;18.78;41.20;100093.91;514764;1098;116337;-61
2021/05/30 09:58:11;;;;;;;1.48;1.30;;;;;;;18.89;40.96;100091.12;498431;1093;10002008;-61
2021/05/30 10:08:17;;;;;;;2.20;1.80;;;;;;;19.01;41.69;100079.38;515687;1092;116555;-61
2021/05/30 10:18:27;;;;;;;2.30;1.47;;;;;;;18.55;40.39;100080.88;515176;1098;116613;-64
2021/05/30 10:28:32;;;;;;;1.70;1.10;;;;;;;18.10;40.86;100066.23;531920;1098;116000;-63
2021/05/30 10:38:42;;;;;;;1.20;1.10;;;;;;;18.14;39.26;100070.31;515820;1098;117766;-64
2021/05/30 10:49:07;;;;;;;3.10;1.40;;;;;;;18.12;39.05;100061.61;515523;1098;116765;-64
2021/05/30 10:59:26;;;;;;;1.23;1.10;;;;;;;17.74;39.84;100056.03;523616;1094;117361;-63
2021/05/30 11:10:06;;;;;;;1.10;1.00;;;;;;;18.15;39.13;100062.19;515898;1093;116435;-64
2021/05/30 11:20:13;;;;;;;1.20;1.10;;;;;;;18.31;38.26;100064.33;519843;1098;115694;-64
2021/05/30 11:30:40;;;;;;;1.70;1.60;;;;;;;18.29;39.27;100079.58;515393;1093;117195;-64
2021/05/30 11:40:45;;;;;;;2.07;1.90;;;;;;;18.33;40.40;100069.52;515737;1098;116477;-64
2021/05/30 11:50:53;;;;;;;1.60;1.50;;;;;;;18.32;38.93;100081.95;515739;1098;116251;-63
2021/05/30 12:01:00;;;;;;;2.27;1.60;;;;;;;18.87;38.99;100085.92;515628;1098;117148;-64
2021/05/30 12:11:05;;;;;;;2.05;1.50;;;;;;;18.61;39.98;100089.14;515809;1093;116570;-65
2021/05/30 12:21:10;;;;;;;1.65;1.40;;;;;;;18.26;40.07;100094.95;515082;1098;116963;-64
2021/05/30 12:31:20;;;;;;;5.07;1.43;;;;;;;18.74;40.01;100094.17;515615;1093;116148;-65
2021/05/30 12:41:31;;;;;;;1.97;1.87;;;;;;;18.86;39.84;100072.75;515942;1098;115866;-64
2021/05/30 12:51:37;;;;;;;2.45;2.13;;;;;;;19.02;39.17;100078.39;516484;1098;115900;-66
2021/05/30 13:01:44;;;;;;;2.10;1.47;;;;;;;19.00;39.36;100075.04;516725;1098;116394;-64
2021/05/30 13:11:49;;;;;;;1.63;1.43;;;;;;;18.89;38.92;100070.66;515263;1098;116494;-65
2021/05/30 13:22:05;;;;;;;3.07;1.63;;;;;;;19.11;39.90;100057.23;515732;1098;116254;-68
2021/05/30 13:32:10;;;;;;;1.50;1.00;;;;;;;18.85;38.25;100057.77;515924;1098;115764;-66
2021/05/30 13:42:15;;;;;;;4.93;1.43;;;;;;;18.82;39.13;100052.74;515790;1098;116367;-66
2021/05/30 13:52:20;;;;;;;1.87;1.43;;;;;;;18.19;39.70;100065.42;515616;1093;116410;-66
2021/05/30 14:02:26;;;;;;;2.00;1.47;;;;;;;16.64;41.76;100061.59;516766;1098;116123;-65
2021/05/30 14:12:31;;;;;;;3.50;1.50;;;;;;;16.42;43.08;100056.37;516001;1098;115667;-67
2021/05/30 14:22:37;;;;;;;3.33;1.50;;;;;;;16.64;41.93;100053.64;515559;1098;116355;-67
2021/05/30 14:32:42;;;;;;;1.60;1.50;;;;;;;17.06;41.79;100055.52;514832;1098;116840;-68
2021/05/30 14:42:48;;;;;;;5.05;1.70;;;;;;;17.26;42.21;100038.88;518031;1098;116894;-69
2021/05/30 14:52:54;;;;;;;2.45;1.20;;;;;;;17.09;42.49;100031.38;516643;1098;116233;-67
2021/05/30 15:02:59;;;;;;;2.00;1.03;;;;;;;16.63;42.45;100032.55;515753;1098;116652;-66
2021/05/30 15:13:04;;;;;;;3.73;1.33;;;;;;;16.47;43.35;100033.83;515763;1098;116889;-68
2021/05/30 15:23:09;;;;;;;1.37;1.27;;;;;;;16.04;43.34;100037.30;516057;1093;116713;-67
2021/05/30 15:33:14;;;;;;;1.20;1.10;;;;;;;15.97;42.93;100031.66;515306;1098;117250;-69
2021/05/30 15:43:19;;;;;;;1.40;1.30;;;;;;;16.91;42.17;100020.48;515488;1098;116617;-68
2021/05/30 15:53:24;;;;;;;2.50;1.30;;;;;;;17.44;41.71;100031.16;516687;1098;117151;-67
2021/05/30 16:03:29;;;;;;;2.90;2.57;;;;;;;17.17;42.21;100028.06;514931;1098;116759;-64
2021/05/30 16:13:36;;;;;;;1.90;1.80;;;;;;;16.91;42.64;100031.09;516160;1098;116278;-65
2021/05/30 16:23:41;;;;;;;1.83;1.40;;;;;;;16.53;43.20;100033.30;515147;1098;116079;-64
2021/05/30 16:33:46;;;;;;;1.58;1.43;;;;;;;16.02;43.31;100034.76;516043;1093;115853;-65
2021/05/30 16:43:51;;;;;;;1.33;1.20;;;;;;;15.75;43.69;100043.91;515887;1093;116883;-65
2021/05/30 16:53:56;;;;;;;2.95;1.80;;;;;;;15.49;44.61;100051.23;515444;1098;116709;-65
2021/05/30 17:04:01;;;;;;;2.30;1.55;;;;;;;15.12;45.89;100057.54;516803;1098;116395;-64
2021/05/30 17:14:07;;;;;;;1.43;1.33;;;;;;;14.81;46.27;100049.30;515742;1098;117001;-65
2021/05/30 17:24:12;;;;;;;2.55;1.50;;;;;;;14.53;47.04;100065.36;516352;1098;116887;-63
2021/05/30 17:34:17;;;;;;;2.85;1.55;;;;;;;14.23;47.83;100069.26;515848;1098;116494;-66
2021/05/30 17:44:22;;;;;;;2.57;1.87;;;;;;;13.89;49.24;100063.73;515473;1098;116456;-68
2021/05/30 17:54:27;;;;;;;3.20;1.80;;;;;;;13.55;50.46;100060.81;515326;1098;116319;-69
2021/05/30 18:04:33;;;;;;;2.27;1.50;;;;;;;13.45;50.92;100063.25;515718;1098;117315;-66
2021/05/30 18:14:39;;;;;;;3.20;1.70;;;;;;;13.39;51.61;100075.04;502415;1098;10003336;-66
2021/05/30 18:24:45;;;;;;;2.33;1.70;;;;;;;13.34;51.94;100074.52;518456;1092;117041;-68
2021/05/30 18:34:51;;;;;;;5.87;2.37;;;;;;;13.21;52.88;100082.41;515155;1098;117326;-69
2021/05/30 18:44:56;;;;;;;3.00;2.60;;;;;;;13.08;53.69;100098.19;514268;1098;116595;-68
2021/05/30 18:55:01;;;;;;;4.93;3.23;;;;;;;12.92;54.68;100113.34;514929;1098;115833;-67
2021/05/30 19:05:09;;;;;;;4.95;3.00;;;;;;;12.76;55.50;100119.63;514607;1098;116584;-65
2021/05/30 19:15:16;;;;;;;2.68;2.48;;;;;;;12.59;56.25;100126.81;514176;1093;117446;-64
2021/05/30 19:25:21;;;;;;;3.47;3.17;;;;;;;12.47;56.96;100133.73;515068;1098;117159;-66
2021/05/30 19:35:30;;;;;;;3.53;3.23;;;;;;;12.40;57.42;100124.51;514218;1093;116393;-64
2021/05/30 19:45:35;;;;;;;4.57;3.40;;;;;;;12.30;57.01;100133.92;514821;1098;117330;-63
2021/05/30 19:55:40;;;;;;;5.00;3.67;;;;;;;12.14;56.49;100136.67;515371;1098;116678;-66
2021/05/30 20:05:48;;;;;;;5.75;3.10;;;;;;;11.87;56.62;100143.49;514404;1098;116469;-66
2021/05/30 20:15:53;;;;;;;7.03;3.48;;;;;;;11.53;57.06;100145.52;515351;1098;116730;-65
2021/05/30 20:26:06;;;;;;;4.87;3.80;;;;;;;11.18;57.80;100144.03;515401;1098;116611;-65
2021/05/30 20:36:11;;;;;;;13.13;4.13;;;;;;;10.91;58.09;100146.45;514938;1093;116775;-64
2021/05/30 20:46:19;;;;;;;5.03;2.68;;;;;;;10.62;58.12;100146.33;515801;1092;116522;-65
2021/05/30 20:56:28;;;;;;;3.37;2.60;;;;;;;10.39;58.45;100151.03;514696;1098;117023;-69
2021/05/30 21:06:33;;;;;;;3.47;3.17;;;;;;;10.14;58.77;100161.98;515797;1098;117224;-68
2021/05/30 21:16:38;;;;;;;4.20;3.47;;;;;;;9.97;59.07;100161.08;515547;1094;115858;-69
2021/05/30 21:26:43;;;;;;;4.87;2.40;;;;;;;9.83;58.78;100158.34;515151;1098;116090;-69
2021/05/30 21:36:49;;;;;;;3.97;2.13;;;;;;;9.71;59.03;100154.59;515289;1098;116647;-68
2021/05/30 21:46:54;;;;;;;2.80;2.33;;;;;;;9.66;58.46;100167.94;515590;1093;116244;-68
2021/05/30 21:57:00;;;;;;;3.47;2.60;;;;;;;9.55;58.61;100165.84;514678;1098;116043;-69
2021/05/30 22:07:05;;;;;;;2.90;2.60;;;;;;;9.45;58.46;100159.37;515570;1098;116705;-69
2021/05/30 22:27:32;;;;;;;3.70;1.97;;;;;;;9.15;58.35;100159.98;515635;1098;116492;-68
2021/05/30 22:37:38;;;;;;;20.35;3.25;;;;;;;9.01;58.55;100164.13;515286;1093;116313;-69
2021/05/30 22:47:43;;;;;;;4.37;2.43;;;;;;;8.89;58.41;100167.31;514474;1093;116516;-69
2021/05/30 22:57:48;;;;;;;2.10;1.70;;;;;;;8.76;58.82;100170.52;515248;1098;116669;-69
2021/05/30 23:07:54;;;;;;;4.23;1.97;;;;;;;8.61;59.68;100156.41;515192;1093;116895;-69
2021/05/30 23:18:00;;;;;;;3.47;2.63;;;;;;;8.48;59.70;100148.23;514656;1093;116419;-70
2021/05/30 23:28:06;;;;;;;2.60;2.23;;;;;;;8.41;59.97;100144.19;515751;1098;115602;-67
2021/05/30 23:38:11;;;;;;;5.60;2.37;;;;;;;8.30;60.33;100149.93;516003;1098;115892;-68
2021/05/30 23:48:16;;;;;;;3.05;2.05;;;;;;;8.12;60.69;100144.59;514645;1093;116020;-69
2021/05/30 23:58:21;;;;;;;2.90;2.23;;;;;;;7.98;61.19;100142.63;515286;1097;116735;-68
